ADDS METAR Data INFO
IDs: Format: Raw Decoded Include TAF

Data at: 0348 UTC 18 Oct 2017

PAPH 180256Z AUTO 02014KT 10SM CLR 05/03 A2928 RMK AO2 RAE40 SLP920 P0000 60000 T00500028 51035
PAPH 180156Z AUTO 02017KT 10SM -RA BKN039 05/03 A2925 RMK AO2 SLP909 P0000 T00500028
PAPH 180056Z AUTO 03020G25KT 10SM -RA OVC035 05/02 A2922 RMK AO2 PK WND 03028/0001 SLP897 P0000 T00500017
PAPH 172356Z AUTO 03020G28KT 10SM -RA SCT070 05/02 A2918 RMK AO2 PK WND 03029/2311 RAB19 SLP884 P0000 60001 T00500017 10061 20033 53025
PAPH 172256Z AUTO 03021G25KT 10SM BKN095 06/01 A2915 RMK AO2 PK WND 04031/2159 SLP873 T00560011
PAPH 172156Z AUTO 05022G27KT 10SM BKN100 06/02 A2911 RMK AO2 PK WND 04031/2143 SLP862 T00560017
PAPH 172056Z AUTO 05022G28KT 10SM FEW100 05/02 A2911 RMK AO2 PK WND 05029/2009 SLP859 P0001 60001 T00500017 53013
PAPH 171956Z AUTO 06020G27KT 10SM SCT100 04/02 A2909 RMK AO2 PK WND 06027/1951 SLP853 T00440022
PAPH 171856Z AUTO 05018KT 10SM FEW028 BKN090 04/03 A2907 RMK AO2 SLP847 T00440028
PAPH 171756Z AUTO 05012KT 10SM BKN100 03/02 A2907 RMK AO2 RAE28 SLP846 P0000 60000 T00330022 10061 20033 56022
PAPH 171656Z AUTO 06015G20KT 10SM -RA SCT031 BKN041 BKN060 04/02 A2908 RMK AO2 RAB19 SLP851 P0000 T00390022
PAPH 171556Z AUTO 04014KT 10SM SCT036 SCT045 BKN085 04/02 A2910 RMK AO2 RAE54 SLP858 P0000 T00390022
PAPH 171534Z AUTO 06016KT 10SM -RA SCT029 BKN040 BKN049 03/03 A2911 RMK AO2 P0000
PAPH 171527Z AUTO 05014KT 10SM -RA BKN029 BKN038 03/02 A2911 RMK AO2 P0000
PAPH 171456Z AUTO 06015KT 10SM -RA SCT025 BKN033 BKN041 04/03 A2913 RMK AO2 RAB21 SLP868 P0000 60000 T00390028 56043
PAPH 171356Z AUTO 07010KT 10SM FEW090 05/02 A2916 RMK AO2 SLP877 T00500022
PAPH 171256Z AUTO 06010KT 10SM SCT040 BKN060 BKN085 06/02 A2921 RMK AO2 SLP895 T00560017
PAPH 171156Z AUTO 11016KT 10SM FEW029 SCT100 06/02 A2926 RMK AO2 RAB17E36 SLP911 P0000 60000 T00610017 10061 20011 58062
PAPH 171056Z AUTO 10008KT 10SM FEW100 04/02 A2933 RMK AO2 SLP933 T00440022
PAPH 170956Z AUTO 10010KT 10SM FEW110 03/01 A2939 RMK AO2 SLP954 T00330011
PAPH 170856Z AUTO 05007KT 10SM CLR 02/01 A2944 RMK AO2 SLP973 T00170006 58051 FZRANO
PAPH 170756Z AUTO 08006KT 10SM CLR 02/00 A2950 RMK AO2 SLP994 T00170000 400780006 FZRANO
PAPH 170656Z AUTO 07006KT 10SM CLR 02/01 A2955 RMK AO2 SLP008 T00170006 FZRANO
PAPH 170556Z AUTO 10004KT 10SM FEW021 OVC033 02/02 A2959 RMK AO2 SLP025 60000 T00220017 10072 20017 58021 FZRANO
PAPH 170517Z AUTO 10005KT 10SM FEW022 BKN035 03/02 A2962 RMK AO2
PAPH 170456Z AUTO 14006KT 10SM BKN020 BKN035 03/02 A2963 RMK AO2 SLP037 T00280022
PAPH 170453Z AUTO 14005KT 10SM BKN020 BKN035 03/02 A2963 RMK AO2
PAPH 170356Z AUTO 28006KT 10SM FEW017 BKN041 OVC060 05/02 A2966 RMK AO2 SLP046 T00500022
PAPH 170343Z AUTO 27006KT 10SM SCT017 OVC039 05/02 A2967 RMK AO2
PAPH 170321Z AUTO 25007KT 10SM SCT014 BKN021 BKN045 06/03 A2968 RMK AO2
PAPH 170256Z AUTO 25010KT 10SM FEW014 SCT049 BKN055 05/03 A2969 RMK AO2 RAB18E30 SLP056 P0000 60000 T00500033 56016
PAPH 170247Z AUTO 25010KT 10SM FEW014 SCT028 BKN055 06/03 A2969 RMK AO2 RAB18E30 P0000
PAPH 170221Z AUTO 23012KT 8SM -RA FEW016 BKN027 OVC050 06/03 A2970 RMK AO2 RAB18 P0000
PAPH 170156Z AUTO 23015KT 10SM SCT020 BKN030 OVC035 06/03 A2971 RMK AO2 SLP063 T00610033
PAPH 170056Z AUTO 23014KT 10SM SCT020 SCT029 BKN034 06/04 A2973 RMK AO2 RAE07B40E55 SLP071 P0000 T00610039
PAPH 170011Z AUTO 24011KT 10SM BKN021 BKN028 OVC033 06/04 A2974 RMK AO2 RAE07 P0000
PAPH 162356Z AUTO 21010KT 10SM -RA FEW017 SCT022 OVC033 06/03 A2975 RMK AO2 RAB41 SLP076 P0000 60000 T00610033 10078 20006 58014
PAPH 162306Z AUTO 24014KT 10SM FEW015 08/03 A2976 RMK AO2
PAPH 162256Z AUTO 24015KT 10SM BKN015 08/04 A2977 RMK AO2 SLP084 T00780039
PAPH 162156Z AUTO 23011KT 10SM FEW036 07/04 A2977 RMK AO2 RAE15 SLP086 P0000 T00670039
PAPH 162117Z AUTO 22013KT 10SM SCT023 OVC032 06/03 A2978 RMK AO2 RAE15 P0000
PAPH 162056Z AUTO 22013KT 10SM -RA BKN022 OVC036 07/04 A2979 RMK AO2 RAB56 SLP090 P0000 60000 T00670039 51004
PAPH 162048Z AUTO 21012KT 10SM BKN020 BKN026 BKN034 06/03 A2979 RMK AO2
PAPH 162011Z AUTO 23011KT 10SM SCT029 06/04 A2979 RMK AO2
PAPH 161956Z AUTO 23010KT 10SM BKN027 07/04 A2979 RMK AO2 SLP090 T00670039
PAPH 161927Z AUTO 22011KT 10SM BKN027 04/03 A2979 RMK AO2
PAPH 161856Z AUTO 13004KT 10SM SCT027 03/03 A2978 RMK AO2 SLP088 T00330028
PAPH 161818Z AUTO 15006KT 10SM SCT029 01/00 A2978 RMK AO2 FZRANO
PAPH 161756Z AUTO 17005KT 10SM BKN029 OVC033 01/00 A2977 RMK AO2 SLP086 T00060000 10050 20006 53006 FZRANO
PAPH 161656Z AUTO 27006KT 10SM BKN025 04/01 A2976 RMK AO2 SLP083 T00390006
PAPH 161626Z AUTO 26007KT 10SM BKN025 BKN033 BKN043 04/01 A2976 RMK AO2
PAPH 161556Z AUTO 26008KT 10SM FEW025 04/01 A2976 RMK AO2 SLP081 T00390006